createdAt,value
2019-02-24T00:04:54.388Z,23.22
2019-02-24T00:09:57.370Z,21.68
2019-02-24T00:15:00.353Z,23.83
2019-02-24T00:20:03.412Z,24.57
2019-02-24T00:25:06.404Z,24.00
2019-02-24T00:30:09.384Z,23.57
2019-02-24T00:35:12.339Z,23.20
2019-02-24T00:40:15.385Z,22.62
2019-02-24T00:45:18.375Z,23.32
2019-02-24T00:50:21.593Z,23.60
2019-02-24T00:55:24.569Z,22.95
2019-02-24T01:00:27.704Z,22.00
2019-02-24T01:05:31.010Z,20.00
2019-02-24T01:10:33.958Z,23.67
2019-02-24T01:15:36.955Z,25.87
2019-02-24T01:20:39.976Z,26.33
2019-02-24T01:25:42.966Z,25.20
2019-02-24T01:30:46.013Z,24.55
2019-02-24T01:35:49.180Z,26.10
2019-02-24T01:40:52.215Z,22.95
2019-02-24T01:45:55.718Z,22.90
2019-02-24T01:50:58.629Z,22.30
2019-02-24T01:56:01.740Z,25.47
2019-02-24T02:01:04.721Z,23.55
2019-02-24T02:06:07.929Z,24.70
2019-02-24T02:11:11.113Z,23.95
2019-02-24T02:16:14.376Z,24.55
2019-02-24T02:21:17.558Z,26.17
2019-02-24T02:26:20.703Z,22.58
2019-02-24T02:31:23.686Z,21.37
2019-02-24T02:36:26.715Z,18.87
2019-02-24T02:41:30.200Z,21.27
2019-02-24T02:46:33.205Z,20.60
2019-02-24T02:51:36.176Z,18.05
2019-02-24T02:56:39.307Z,20.10
2019-02-24T03:01:42.410Z,17.70
2019-02-24T03:06:57.684Z,16.17
2019-02-24T03:12:00.977Z,20.73
2019-02-24T03:17:04.117Z,20.93
2019-02-24T03:22:07.509Z,20.90
2019-02-24T03:27:10.519Z,20.10
2019-02-24T03:32:13.469Z,23.20
2019-02-24T03:37:16.460Z,23.20
2019-02-24T03:42:19.430Z,14.90
2019-02-24T03:47:22.566Z,24.15
2019-02-24T03:52:25.602Z,22.45
2019-02-24T03:57:28.662Z,22.67
2019-02-24T04:02:31.822Z,22.85
2019-02-24T04:07:34.951Z,23.60
2019-02-24T04:12:37.933Z,25.43
2019-02-24T04:17:41.161Z,22.52
2019-02-24T04:22:44.471Z,26.70
2019-02-24T04:27:47.859Z,23.12
2019-02-24T04:32:50.967Z,21.15
2019-02-24T04:37:53.976Z,22.10
2019-02-24T04:42:56.903Z,20.32
2019-02-24T04:47:59.953Z,18.23
2019-02-24T04:53:05.678Z,19.32
2019-02-24T04:58:08.711Z,18.43
2019-02-24T05:03:11.689Z,18.77
2019-02-24T05:08:15.257Z,16.42
2019-02-24T05:13:18.259Z,19.40
2019-02-24T05:18:21.369Z,20.12
2019-02-24T05:23:24.322Z,24.57
2019-02-24T05:28:27.322Z,26.93
2019-02-24T05:33:30.498Z,24.63
2019-02-24T05:38:33.432Z,25.12
2019-02-24T05:43:36.617Z,27.30
2019-02-24T05:48:39.965Z,33.15
2019-02-24T05:53:43.188Z,31.87
2019-02-24T05:58:46.166Z,35.48
2019-02-24T06:03:49.475Z,32.08
2019-02-24T06:08:52.526Z,35.48
2019-02-24T06:13:55.585Z,32.35
2019-02-24T06:18:58.697Z,31.40
2019-02-24T06:24:01.664Z,32.55
2019-02-24T06:29:04.643Z,32.67
2019-02-24T06:34:07.789Z,29.00
2019-02-24T06:39:11.065Z,28.05
2019-02-24T06:44:14.015Z,30.27
2019-02-24T06:49:17.082Z,28.32
2019-02-24T06:54:20.092Z,28.47
2019-02-24T06:59:23.439Z,29.63
2019-02-24T07:04:26.412Z,27.85
2019-02-24T07:09:29.395Z,34.60
2019-02-24T07:14:32.488Z,34.95
2019-02-24T07:19:35.420Z,35.95
2019-02-24T07:24:38.595Z,34.48
2019-02-24T07:29:41.686Z,35.15
2019-02-24T07:34:44.878Z,31.82
2019-02-24T07:39:48.077Z,33.90
2019-02-24T07:44:51.176Z,30.52
2019-02-24T07:49:54.265Z,30.37
2019-02-24T07:54:57.233Z,29.60
2019-02-24T08:00:00.358Z,26.62
2019-02-24T08:05:03.625Z,20.30
2019-02-24T08:10:07.274Z,24.90
2019-02-24T08:15:10.367Z,24.90
2019-02-24T08:20:13.325Z,22.70
2019-02-24T08:25:16.270Z,22.22
2019-02-24T08:30:19.525Z,20.37
2019-02-24T08:35:22.568Z,19.27
2019-02-24T08:40:25.609Z,19.65
2019-02-24T08:45:28.591Z,19.07
2019-02-24T08:50:31.685Z,20.00
2019-02-24T08:55:34.627Z,14.93
2019-02-24T09:00:37.858Z,18.52
2019-02-24T09:05:40.944Z,16.23
2019-02-24T09:10:44.005Z,13.78
2019-02-24T09:15:46.956Z,19.95
2019-02-24T09:20:50.048Z,18.70
2019-02-24T09:25:53.065Z,16.87
2019-02-24T09:31:00.874Z,14.90
2019-02-24T09:36:01.331Z,16.75
2019-02-24T09:41:04.565Z,18.32
2019-02-24T09:46:07.627Z,16.80
2019-02-24T09:51:10.593Z,18.25
2019-02-24T09:56:13.524Z,17.42
2019-02-24T10:01:16.488Z,13.50
2019-02-24T10:06:19.477Z,19.77
2019-02-24T10:11:22.468Z,18.42
2019-02-24T10:16:25.559Z,17.98
2019-02-24T10:21:28.622Z,19.20
2019-02-24T10:26:31.722Z,20.23
2019-02-24T10:31:34.679Z,18.92
2019-02-24T10:36:37.902Z,16.50
2019-02-24T10:41:40.849Z,18.23
2019-02-24T10:46:44.023Z,16.75
2019-02-24T10:51:47.136Z,18.65
2019-02-24T10:56:50.102Z,17.17
2019-02-24T11:01:53.282Z,15.72
2019-02-24T11:06:56.287Z,15.98
2019-02-24T11:11:59.354Z,19.80
2019-02-24T11:17:02.398Z,17.67
2019-02-24T11:22:05.470Z,17.98
2019-02-24T11:27:08.545Z,18.25
2019-02-24T11:32:11.678Z,16.10
2019-02-24T11:37:14.761Z,18.98
2019-02-24T11:42:17.730Z,16.50
2019-02-24T11:47:20.762Z,15.43
2019-02-24T11:52:23.720Z,13.33
2019-02-24T11:57:27.091Z,15.75
2019-02-24T12:02:34.444Z,16.30
2019-02-24T12:07:35.192Z,15.00
2019-02-24T12:12:38.283Z,9.43
2019-02-24T12:17:41.312Z,15.63
2019-02-24T12:22:44.707Z,15.23
2019-02-24T12:27:47.698Z,16.27
2019-02-24T12:32:50.977Z,15.93
2019-02-24T12:37:53.936Z,16.70
2019-02-24T12:42:57.104Z,17.17
2019-02-24T12:48:00.439Z,16.33
2019-02-24T12:53:03.787Z,17.42
2019-02-24T12:58:07.523Z,17.32
2019-02-24T13:03:10.700Z,17.27
2019-02-24T13:08:13.672Z,19.60
2019-02-24T13:13:16.618Z,17.80
2019-02-24T13:18:19.601Z,16.02
2019-02-24T13:23:22.617Z,18.62
2019-02-24T13:28:25.614Z,18.37
2019-02-24T13:33:28.872Z,20.72
2019-02-24T13:38:31.848Z,18.74
2019-02-24T13:43:34.889Z,19.37
2019-02-24T13:48:38.107Z,18.65
2019-02-24T13:53:41.382Z,18.37
2019-02-24T13:58:44.530Z,18.37
2019-02-24T14:03:47.590Z,24.00
2019-02-24T14:08:50.620Z,19.90
2019-02-24T14:13:53.595Z,20.05
2019-02-24T14:18:56.674Z,18.90
2019-02-24T14:23:59.718Z,20.20
2019-02-24T14:29:02.706Z,21.62
2019-02-24T14:34:06.222Z,21.62
2019-02-24T14:39:09.247Z,20.37
2019-02-24T14:44:12.621Z,23.18
2019-02-24T14:49:15.659Z,20.92
2019-02-24T14:54:18.672Z,20.65
2019-02-24T14:59:22.186Z,22.30
2019-02-24T15:04:25.628Z,20.20
2019-02-24T15:09:28.641Z,24.35
2019-02-24T15:14:31.723Z,20.15
2019-02-24T15:19:35.150Z,22.25
2019-02-24T15:24:38.247Z,22.50
2019-02-24T15:29:41.443Z,19.20
2019-02-24T15:34:44.466Z,20.75
2019-02-24T15:39:47.513Z,15.66
2019-02-24T15:44:50.500Z,17.05
2019-02-24T15:49:53.604Z,19.20
2019-02-24T15:54:56.866Z,20.95
2019-02-24T16:00:00.224Z,20.57
2019-02-24T16:05:03.930Z,21.20
2019-02-24T16:10:10.009Z,18.80
2019-02-24T16:15:14.474Z,20.80
2019-02-24T16:20:21.559Z,19.80
2019-02-24T16:25:24.587Z,19.37
2019-02-24T16:30:27.829Z,18.32
2019-02-24T16:35:30.957Z,24.70
2019-02-24T16:40:33.961Z,21.95
2019-02-24T16:45:37.373Z,24.13
2019-02-24T16:50:40.454Z,21.75
2019-02-24T16:55:43.574Z,24.92
2019-02-24T17:00:46.555Z,26.03
2019-02-24T17:05:49.758Z,25.08
2019-02-24T17:10:52.720Z,22.87
2019-02-24T17:15:56.001Z,24.02
2019-02-24T17:20:59.089Z,25.88
2019-02-24T17:26:02.088Z,25.45
2019-02-24T17:31:07.017Z,26.15
2019-02-24T17:36:10.361Z,23.25
2019-02-24T17:41:13.436Z,25.75
2019-02-24T17:46:16.955Z,25.92
2019-02-24T17:51:21.548Z,25.43
2019-02-24T17:56:25.022Z,24.93
2019-02-24T18:01:28.236Z,22.73
2019-02-24T18:06:31.471Z,24.05
2019-02-24T18:11:34.488Z,19.33
2019-02-24T18:16:37.544Z,20.97
2019-02-24T18:21:40.667Z,21.37
2019-02-24T18:26:43.796Z,22.67
2019-02-24T18:31:46.796Z,19.98
2019-02-24T18:36:50.129Z,20.90
2019-02-24T18:41:53.195Z,22.77
2019-02-24T18:46:56.264Z,20.43
2019-02-24T18:51:59.411Z,21.73
2019-02-24T18:57:02.428Z,19.15
2019-02-24T19:02:05.519Z,20.97
2019-02-24T19:07:08.640Z,21.30
2019-02-24T19:12:11.716Z,20.77
2019-02-24T19:17:14.879Z,23.60
2019-02-24T19:22:17.956Z,21.50
2019-02-24T19:27:20.903Z,14.68
2019-02-24T19:32:24.054Z,20.75
2019-02-24T19:37:27.043Z,22.20
2019-02-24T19:42:30.178Z,22.50
2019-02-24T19:47:33.156Z,22.80
2019-02-24T19:52:36.163Z,20.82
2019-02-24T19:57:39.333Z,22.10
2019-02-24T20:02:42.545Z,18.77
2019-02-24T20:07:45.744Z,22.60
2019-02-24T20:12:48.734Z,24.07
2019-02-24T20:17:51.794Z,21.23
2019-02-24T20:22:54.793Z,20.62
2019-02-24T20:27:58.517Z,17.62
2019-02-24T20:33:01.642Z,23.57
2019-02-24T20:38:05.386Z,21.82
2019-02-24T20:43:08.537Z,21.70
2019-02-24T20:48:11.527Z,22.98
2019-02-24T20:53:14.595Z,22.82
2019-02-24T20:58:17.999Z,21.50
2019-02-24T21:03:22.573Z,22.37
2019-02-24T21:08:25.806Z,21.10
2019-02-24T21:13:29.176Z,22.07
2019-02-24T21:18:32.406Z,21.73
2019-02-24T21:23:35.488Z,21.37
2019-02-24T21:28:38.617Z,21.48
2019-02-24T21:33:41.631Z,21.05
2019-02-24T21:38:44.794Z,25.05
2019-02-24T21:43:47.885Z,23.57
2019-02-24T21:48:50.937Z,23.12
2019-02-24T21:53:54.915Z,22.98
2019-02-24T21:58:57.921Z,23.62
2019-02-24T22:04:00.932Z,22.40
2019-02-24T22:09:06.601Z,22.75
2019-02-24T22:14:09.790Z,22.43
2019-02-24T22:19:12.802Z,21.57
2019-02-24T22:24:15.978Z,22.35
2019-02-24T22:29:18.972Z,21.93
2019-02-24T22:34:21.963Z,22.00
2019-02-24T22:39:25.008Z,23.35
2019-02-24T22:44:28.117Z,21.70
2019-02-24T22:49:31.226Z,23.60
2019-02-24T22:54:34.245Z,18.87
2019-02-24T22:59:37.470Z,22.37
2019-02-24T23:04:40.744Z,23.10
2019-02-24T23:09:43.960Z,21.95
2019-02-24T23:14:46.957Z,20.60
2019-02-24T23:19:50.065Z,24.25
2019-02-24T23:24:53.040Z,21.15
2019-02-24T23:29:56.068Z,16.73
2019-02-24T23:34:59.133Z,23.00
2019-02-24T23:40:02.450Z,26.17
2019-02-24T23:45:10.180Z,21.12
2019-02-24T23:50:11.093Z,20.20
2019-02-24T23:55:14.069Z,20.92
